Startpagina
METAR-TAF:

METAR-TAF

Vliegvelden :

Selebi-Phikwe, Botswana

breedte: 22-03-19S, lengte: 027-49-13E, hoogte: 892 m

Actueel weer

Dit bericht is 59 minuten geleden gemaakt, om 12:00 UTC
Wind 10 kt uit het oosten
Temperatuur 32°C
Vochtigheid 49%
Druk 1018 hPa
Zicht 10 km of meer
Gebroken wolken op 3000 ft

METAR: FBSP 191200Z 08010KT 9999 BKN030 32/20 Q1018

Tijdstip: 14:59 (12:59 UTC)

Verwachting

Dit bericht is 6 uur en het 59 minuten geleden gemaakt, om 06:00 UTC
Verwachting geldig van 19 om 06 UTC tot 19 om 18 UTC
Wind 9 kt uit het oosten
Zicht 10 km of meer
Verspreide wolken op 3000 ft

TAF: FBSP 190600Z 1906/1918 08009KT 9999 SCT030

Waarnemingen en weersverwachtingen van meer dan 4000 vliegvelden (METAR en TAF).

De beschikbare stations zijn de gele en rode punten op de kaart.

Ga met uw muis naar het station om de naam te zien.

Klik dan om waarnemingen en weersverwachtingen te zien.

kaart wijzigen: klik op de groene knoppen met een zwart kruis om in te zoomen, op de groene knop met een streepje om uit te zoomen of op de groene pijlen voor aangrenzende kaarten.


METAR-TAF: